• Join FlightAware (Why Join?)
  • Login
  • US Flag 
12:03AM EST


 

Airport Tracker/Info


-or-


 

Live Flight TrackerFlight Track Log ✈ UPS213 ✈ 12-Mar-2014 ✈ KSDF - EDDK / CGN

Flight Track Log - Related Links

Times and Time Zones

All times are in EDT time to prevent confusion due to time zone crossing. See the UPS213 flight status page for this flight to view local times or setup timezone preferences in your user account.

Time Position Orientation Groundspeed Altitude Reporting Facility
EDT Latitude Longitude Course Direction KTS MPH feet Rate Location/Type
05:25AM 38.0579 -85.6585 98° East 330 380 4,600  Level FlightAware ADS-B (KBRY)
05:26AM 38.1045 -85.5676 20° North 330 380 7,100 2,400 Climbing FlightAware ADS-B (KBRY)
05:27AM 38.1822 -85.5043 36° Northeast 353 406 9,400 2,040 Climbing FlightAware ADS-B (KBRY)
05:28AM 38.2651 -85.4269 37° Northeast 385 443 11,300 1,680 Climbing FlightAware ADS-B (KBRY)
05:29AM 38.3436 -85.3174 53° Northeast 424 488 12,900 1,800 Climbing FlightAware ADS-B (KBRY)
05:30AM 38.3993 -85.2262 52° Northeast 440 506 14,900 1,980 Climbing FlightAware ADS-B (KBRY)
05:31AM 38.4933 -85.0708 52° Northeast 456 525 16,900 1,800 Climbing FlightAware ADS-B (KBRY)
05:32AM 38.5400 -84.9936 52° Northeast 471 542 18,600 1,740 Climbing FlightAware ADS-B (KBRY)
05:33AM 38.6513 -84.8080 53° Northeast 479 551 20,400 1,620 Climbing FlightAware ADS-B (KBRY)
05:34AM 38.7300 -84.6769 53° Northeast 492 566 21,900 1,500 Climbing FlightAware ADS-B (KBRY)
05:35AM 38.7927 -84.5718 53° Northeast 502 578 23,000 1,560 Climbing FlightAware ADS-B (KBRY)
05:35AM 38.8486 -84.4777 53° Northeast 505 581 24,200 1,440 Climbing FlightAware ADS-B (KBRY)
05:36AM 38.9097 -84.3744 53° Northeast 503 579 25,200 1,140 Climbing Indianapolis Center
05:37AM 38.9953 -84.2292 53° Northeast 505 581 26,300 1,080 Climbing Indianapolis Center
05:38AM 39.0833 -84.0778 53° Northeast 522 601 27,400 960 Climbing Indianapolis Center
05:39AM 39.1719 -83.9253 53° Northeast 533 613 28,300 840 Climbing Indianapolis Center
05:40AM 39.2639 -83.7689 53° Northeast 541 623 29,200 360 Climbing Indianapolis Center
05:46AM 39.8088 -82.8169 54° Northeast 566 651 31,000 240 Climbing FlightAware ADS-B
05:46AM 39.8489 -82.7455 54° Northeast 568 654 31,000  Level FlightAware ADS-B
05:47AM 39.9180 -82.6220 54° Northeast 569 655 31,000  Level FlightAware ADS-B
05:48AM 39.9859 -82.5003 54° Northeast 569 655 31,000  Level FlightAware ADS-B
05:49AM 40.0839 -82.3245 54° Northeast 569 655 31,000  Level FlightAware ADS-B
05:50AM 40.1872 -82.1375 54° Northeast 568 654 31,000 120 Level Cleveland Center
05:51AM 40.2794 -81.9692 54° Northeast 569 655 31,300 540 Climbing Cleveland Center
05:52AM 40.3631 -81.8167 54° Northeast 569 655 32,200 240 Climbing Cleveland Center
05:57AM 40.8787 -80.8568 55° Northeast 576 663 33,000 120 Climbing FlightAware ADS-B (CYYZ)
05:58AM 40.9239 -80.7712 55° Northeast 576 663 33,000  Level FlightAware ADS-B (CYYZ)
05:58AM 40.9695 -80.6845 55° Northeast 576 663 33,000  Level FlightAware ADS-B (CYYZ)
05:59AM 41.0162 -80.5960 55° Northeast 577 664 33,000  Level FlightAware ADS-B (CYYZ)
05:59AM 41.0609 -80.5104 55° Northeast 579 666 33,000  Level FlightAware ADS-B (CYYZ)
06:00AM 41.1066 -80.4230 55° Northeast 580 667 33,000  Level FlightAware ADS-B (CYYZ)
06:00AM 41.1525 -80.3348 55° Northeast 582 670 33,000  Level FlightAware ADS-B (CYYZ)
06:01AM 41.1985 -80.2461 55° Northeast 583 671 33,000  Level FlightAware ADS-B (CYYZ)
06:01AM 41.2427 -80.1609 55° Northeast 583 671 33,000  Level FlightAware ADS-B (CYYZ)
06:02AM 41.2891 -80.0710 55° Northeast 584 672 33,000  Level FlightAware ADS-B (CYYZ)
06:02AM 41.3334 -79.9848 55° Northeast 585 673 33,000  Level FlightAware ADS-B (CYYZ)
06:03AM 41.3808 -79.8921 55° Northeast 585 673 33,000  Level FlightAware ADS-B (CYYZ)
06:03AM 41.4236 -79.8088 55° Northeast 585 673 33,000 60 Level FlightAware ADS-B (CYYZ)
06:04AM 41.4717 -79.7143 55° Northeast 584 672 33,100 60 Climbing FlightAware ADS-B (CYYZ)
06:04AM 41.5164 -79.6266 56° Northeast 584 672 33,100  Level FlightAware ADS-B (CYYZ)
06:05AM 41.5607 -79.5392 55° Northeast 583 671 33,100 -120 Level FlightAware ADS-B (CYYZ)
06:05AM 41.6068 -79.4483 55° Northeast 581 669 33,000 -120 Descending FlightAware ADS-B (CYYZ)
06:06AM 41.6528 -79.3576 56° Northeast 581 669 33,000  Level FlightAware ADS-B (CYYZ)
06:06AM 41.6948 -79.2739 56° Northeast 580 667 33,000  Level FlightAware ADS-B (CYYZ)
06:07AM 41.7381 -79.1873 56° Northeast 578 665 33,000  Level FlightAware ADS-B (CYYZ)
06:07AM 41.7806 -79.1023 56° Northeast 576 663 33,000  Level FlightAware ADS-B (CYYZ)
06:08AM 41.8296 -79.0040 56° Northeast 574 661 33,000  Level FlightAware ADS-B (CYYZ)
06:08AM 41.8726 -78.9172 56° Northeast 572 658 33,000  Level FlightAware ADS-B (CYYZ)
06:09AM 41.9174 -78.8274 56° Northeast 572 658 33,000  Level FlightAware ADS-B (CYYZ)
06:09AM 41.9601 -78.7413 56° Northeast 571 657 33,000  Level FlightAware ADS-B (CYYZ)
06:10AM 42.0056 -78.6488 56° Northeast 571 657 33,000  Level FlightAware ADS-B (CYYZ)
06:10AM 42.0492 -78.5597 56° Northeast 572 658 33,000  Level FlightAware ADS-B (CYYZ)
06:11AM 42.0921 -78.4717 56° Northeast 573 659 33,000  Level FlightAware ADS-B (CYYZ)
06:11AM 42.1355 -78.3824 56° Northeast 575 662 33,000  Level FlightAware ADS-B (CYYZ)
06:12AM 42.1787 -78.2938 56° Northeast 577 664 33,000  Level FlightAware ADS-B (CYYZ)
06:12AM 42.2230 -78.2023 56° Northeast 578 665 33,000  Level FlightAware ADS-B (CYYZ)
06:13AM 42.2666 -78.1125 56° Northeast 580 667 33,000  Level FlightAware ADS-B (CYYZ)
06:13AM 42.3109 -78.0213 56° Northeast 582 670 33,000 60 Level FlightAware ADS-B (CYYZ)
06:14AM 42.3550 -77.9297 57° Northeast 584 672 33,100 60 Climbing FlightAware ADS-B (CYYZ)
06:14AM 42.3982 -77.8394 57° Northeast 585 673 33,100  Level FlightAware ADS-B (CYYZ)
06:15AM 42.4429 -77.7458 57° Northeast 586 674 33,100  Level FlightAware ADS-B (CYYZ)
06:15AM 42.4872 -77.6530 57° Northeast 586 674 33,100 -120 Level FlightAware ADS-B (CYYZ)
06:16AM 42.5306 -77.5620 57° Northeast 584 672 33,000 -120 Descending FlightAware ADS-B (CYYZ)
06:16AM 42.5737 -77.4712 57° Northeast 580 667 33,000  Level FlightAware ADS-B (CYYZ)
06:17AM 42.6322 -77.3471 57° Northeast 576 663 33,000  Level FlightAware ADS-B (CYYZ)
06:18AM 42.6939 -77.2160 57° Northeast 572 658 33,000  Level FlightAware ADS-B (CYYZ)
06:18AM 42.7386 -77.1205 57° Northeast 571 657 33,000  Level FlightAware ADS-B (CYYZ)
06:19AM 42.7798 -77.0317 57° Northeast 572 658 33,000  Level FlightAware ADS-B (CYYZ)
06:19AM 42.8199 -76.9453 57° Northeast 573 659 33,000  Level FlightAware ADS-B (CYYZ)
06:20AM 42.8517 -76.8768 58° Northeast 574 661 33,000  Level FlightAware ADS-B (CYOW)
06:20AM 42.8847 -76.8056 57° Northeast 576 663 33,000  Level FlightAware ADS-B (CYYZ)
06:21AM 42.8332 -76.9167 58° Northeast 570 656 33,000  Level FlightAware ADS-B (EPGD / GDN)
06:24AM 43.1856 -76.1297 65° Northeast 589 678 33,000  Level FlightAware ADS-B (CYOW)
06:26AM 43.3102 -75.7648 65° Northeast 591 680 33,000  Level FlightAware ADS-B (CYOW)
06:27AM 43.4190 -75.4410 65° Northeast 591 680 33,000  Level FlightAware ADS-B (EBAW / ANR)
06:28AM 43.4540 -75.3370 65° Northeast 591 680 33,000  Level FlightAware ADS-B (EBAW / ANR)
06:28AM 43.4629 -75.3109 65° Northeast 589 678 33,000  Level FlightAware ADS-B (CYOW)
06:28AM 43.4880 -75.2350 65° Northeast 590 679 33,000  Level FlightAware ADS-B (EBAW / ANR)
06:29AM 43.4764 -75.2704 66° East 589 678 33,000  Level FlightAware ADS-B (CYOW)
06:29AM 43.5290 -75.1130 65° Northeast 589 678 33,000  Level FlightAware ADS-B (EBAW / ANR)
06:29AM 43.5690 -74.9890 65° Northeast 589 678 33,000  Level FlightAware ADS-B (EBAW / ANR)
06:30AM 43.5944 -74.9126 65° Northeast 587 676 33,000  Level FlightAware ADS-B (CYOW)
06:30AM 43.6090 -74.8690 65° Northeast 588 677 33,000  Level FlightAware ADS-B (EBAW / ANR)
06:30AM 43.6405 -74.7727 66° East 588 677 33,000  Level FlightAware ADS-B (CYOW)
06:30AM 43.6420 -74.7690 65° Northeast 589 678 33,000  Level FlightAware ADS-B (EBAW / ANR)
06:31AM 43.6760 -74.6610 65° Northeast 590 679 33,000  Level FlightAware ADS-B (EBAW / ANR)
06:31AM 43.6781 -74.6564 66° East 589 678 33,000  Level FlightAware ADS-B (CYOW)
06:31AM 43.7090 -74.5620 65° Northeast 591 680 33,000  Level FlightAware ADS-B (EBAW / ANR)
06:32AM 43.7233 -74.5166 66° East 591 680 33,000  Level FlightAware ADS-B (CYOW)
06:32AM 43.7450 -74.4490 65° Northeast 592 681 33,000  Level FlightAware ADS-B (EBAW / ANR)
06:32AM 43.7564 -74.4140 66° East 592 681 33,000  Level FlightAware ADS-B (CYOW)
06:32AM 43.7830 -74.3310 65° Northeast 593 682 33,000  Level FlightAware ADS-B (EBAW / ANR)
06:33AM 43.7937 -74.2993 66° East 593 682 33,000  Level FlightAware ADS-B (CYOW)
06:33AM 43.8180 -74.2220 66° East 594 684 33,000 120 Level FlightAware ADS-B (EBAW / ANR)
06:33AM 43.8417 -74.1491 66° East 595 685 33,100 180 Climbing FlightAware ADS-B (CYOW)
06:33AM 43.8520 -74.1160 66° East 596 686 33,100  Level FlightAware ADS-B (EBAW / ANR)
06:34AM 43.8864 -74.0083 66° East 597 687 33,100  Level FlightAware ADS-B (CYOW)
06:34AM 43.9050 -73.9490 66° East 598 688 33,100  Level FlightAware ADS-B (EBAW / ANR)
06:35AM 43.9249 -73.8863 67° East 598 688 33,100  Level FlightAware ADS-B (CYOW)
06:35AM 43.9370 -73.8470 66° East 598 688 33,100  Level FlightAware ADS-B (EBAW / ANR)
06:35AM 43.9770 -73.7210 66° East 599 689 33,100 -120 Level FlightAware ADS-B (EBAW / ANR)
06:36AM 44.0110 -73.6140 66° East 597 687 33,000 -180 Descending FlightAware ADS-B (EBAW / ANR)
06:36AM 44.0163 -73.5958 66° East 596 686 33,000  Level FlightAware ADS-B (CYOW)
06:36AM 44.0440 -73.5090 66° East 596 686 33,000  Level FlightAware ADS-B (EBAW / ANR)
06:37AM 44.0830 -73.3820 66° East 594 684 33,000  Level FlightAware ADS-B (EBAW / ANR)
06:37AM 44.1140 -73.2800 66° East 594 684 33,000  Level FlightAware ADS-B (EBAW / ANR)
06:38AM 44.1470 -73.1730 66° East 592 681 33,000  Level FlightAware ADS-B (EBAW / ANR)
06:38AM 44.1780 -73.0730 66° East 590 679 33,000  Level FlightAware ADS-B (EBAW / ANR)
06:39AM 44.2090 -72.9720 66° East 590 679 33,000  Level FlightAware ADS-B (EBAW / ANR)
06:39AM 44.2216 -72.9305 67° East 589 678 33,000  Level FlightAware ADS-B
06:40AM 44.2430 -72.8590 67° East 589 678 33,000  Level FlightAware ADS-B (EBAW / ANR)
06:40AM 44.2750 -72.7530 67° East 591 680 33,000  Level FlightAware ADS-B (EBAW / ANR)
06:40AM 44.2974 -72.6794 67° East 591 680 33,000  Level FlightAware ADS-B (KBTV)
06:41AM 44.3130 -72.6280 67° East 593 682 33,000  Level FlightAware ADS-B (EBAW / ANR)
06:41AM 44.3336 -72.5580 68° East 593 682 33,000  Level FlightAware ADS-B (KBOS)
06:41AM 44.3510 -72.5000 67° East 595 685 33,000  Level FlightAware ADS-B (EBAW / ANR)
06:41AM 44.3431 -72.5264 67° East 594 684 33,000  Level FlightAware ADS-B (KBTV)
06:42AM 44.3830 -72.3930 67° East 596 686 33,000 120 Level FlightAware ADS-B (EBAW / ANR)
06:42AM 44.3933 -72.3580 67° East 596 686 33,100 180 Climbing FlightAware ADS-B (KBOS)
06:42AM 44.4140 -72.2870 67° East 598 688 33,100  Level FlightAware ADS-B (EBAW / ANR)
06:43AM 44.4510 -72.1640 67° East 600 690 33,100  Level FlightAware ADS-B (EBAW / ANR)
06:43AM 44.4512 -72.1638 68° East 599 689 33,100  Level FlightAware ADS-B (KBOS)
06:43AM 44.4840 -72.0540 67° East 602 693 33,100  Level FlightAware ADS-B (EBAW / ANR)
06:44AM 44.5020 -71.9878 72° East 605 696 33,100  Level FlightAware ADS-B (KBOS)
06:44AM 44.5140 -71.9340 73° East 607 699 33,100  Level FlightAware ADS-B (EBAW / ANR)
06:44AM 44.5279 -71.8683 73° East 605 696 33,100 -240 Level FlightAware ADS-B (KBOS)
06:44AM 44.5380 -71.8200 73° East 605 696 33,000 -240 Descending FlightAware ADS-B (EBAW / ANR)
06:45AM 44.5560 -71.7392 73° East 603 694 33,000  Level FlightAware ADS-B (KBOS)
06:45AM 44.5820 -71.6220 73° East 601 692 33,000  Level FlightAware ADS-B (EBAW / ANR)
06:45AM 44.5882 -71.5916 73° East 601 692 33,000  Level FlightAware ADS-B (KBOS)
06:46AM 44.6120 -71.4810 73° East 600 690 33,000  Level FlightAware ADS-B (EBAW / ANR)
06:46AM 44.6126 -71.4778 73° East 599 689 33,000  Level FlightAware ADS-B (KBOS)
06:47AM 44.6534 -71.2853 74° East 596 686 33,000  Level FlightAware ADS-B (KBOS)
06:49AM 44.7421 -70.8608 74° East 597 687 33,000  Level FlightAware ADS-B
06:49AM 44.7648 -70.7510 74° East 598 688 33,000  Level FlightAware ADS-B
06:50AM 44.7984 -70.5861 74° East 600 690 33,000  Level FlightAware ADS-B
06:51AM 44.8683 -70.2411 74° East 601 692 33,100  Climbing FlightAware ADS-B
06:52AM 44.8935 -70.1149 74° East 598 688 33,000 -120 Descending FlightAware ADS-B
06:52AM 44.9154 -70.0062 74° East 596 686 33,000  Level FlightAware ADS-B
06:53AM 44.9469 -69.8487 74° East 593 682 33,000  Level FlightAware ADS-B
06:54AM 44.9687 -69.7366 75° East 592 681 33,000  Level FlightAware ADS-B
06:54AM 44.9988 -69.5807 75° East 590 679 33,000  Level FlightAware ADS-B
06:55AM 45.0266 -69.4375 75° East 588 677 33,000  Level FlightAware ADS-B
06:56AM 45.0679 -69.2225 75° East 590 679 33,000  Level FlightAware ADS-B (KBGR)
06:57AM 45.0969 -69.0680 75° East 592 681 33,000  Level FlightAware ADS-B (KBGR)
06:57AM 45.1199 -68.9461 75° East 594 684 33,000 60 Level FlightAware ADS-B
06:58AM 45.1398 -68.8410 75° East 594 684 33,100 60 Climbing FlightAware ADS-B (CYQI)
06:58AM 45.1681 -68.6879 76° East 595 685 33,100  Level FlightAware ADS-B
06:59AM 45.1800 -68.6231 76° East 595 685 33,100 -120 Level FlightAware ADS-B (KBGR)
06:59AM 45.2029 -68.4993 75° East 593 682 33,000 -120 Descending FlightAware ADS-B
07:00AM 45.2244 -68.3809 76° East 590 679 33,000  Level FlightAware ADS-B (KBGR)
07:00AM 45.2447 -68.2711 75° East 587 676 33,000  Level FlightAware ADS-B (KBGR)
07:00AM 45.2487 -68.2497 75° East 587 676 33,000  Level FlightAware ADS-B (CYQI)
07:01AM 45.2707 -68.1273 76° East 586 674 33,000  Level FlightAware ADS-B
07:02AM 45.3018 -67.9536 76° East 583 671 33,000  Level FlightAware ADS-B
07:02AM 45.3210 -67.8455 76° East 583 671 33,000  Level FlightAware ADS-B
07:03AM 45.3496 -67.6934 72° East 582 670 33,000  Level FlightAware ADS-B
07:03AM 45.3732 -67.5850 73° East 584 672 33,000  Level FlightAware ADS-B
07:06AM 45.5115 -66.9322 74° East 593 682 33,000  Level FlightAware ADS-B (CYQI)
07:07AM 45.5402 -66.7931 74° East 595 685 33,000  Level FlightAware ADS-B (CYQI)
07:07AM 45.5655 -66.6706 74° East 595 685 33,000 60 Level FlightAware ADS-B (CYQI)
07:08AM 45.5972 -66.5171 74° East 596 686 33,100 60 Climbing FlightAware ADS-B (CYQI)
07:09AM 45.6197 -66.4049 74° East 595 685 33,100 -120 Level FlightAware ADS-B (CYQI)
07:09AM 45.6434 -66.2873 74° East 594 684 33,000 -120 Descending FlightAware ADS-B (CYQI)
07:10AM 45.6742 -66.1374 74° East 592 681 33,000  Level FlightAware ADS-B (CYQI)
07:10AM 45.7030 -65.9931 74° East 589 678 33,000  Level FlightAware ADS-B (CYQI)
07:11AM 45.7248 -65.8823 74° East 588 677 33,000  Level FlightAware ADS-B (CYQI)
07:12AM 45.7691 -65.6586 74° East 585 673 33,000  Level FlightAware ADS-B (CYQI)
07:12AM 45.7904 -65.5491 74° East 585 673 33,000  Level FlightAware ADS-B (CYQI)
07:13AM 45.8110 -65.4429 75° East 585 673 33,000  Level FlightAware ADS-B (CYQI)
07:14AM 45.8405 -65.2897 75° East 587 676 33,000  Level FlightAware ADS-B (CYQI)
07:14AM 45.8624 -65.1717 75° East 589 678 33,000 60 Level FlightAware ADS-B (CYQI)
07:15AM 45.8900 -65.0274 75° East 590 679 33,100 60 Climbing FlightAware ADS-B (CYQI)
07:15AM 45.9126 -64.9102 75° East 593 682 33,100 -60 Level FlightAware ADS-B (CYQI)
07:17AM 45.9644 -64.6308 75° East 593 682 33,000 -60 Descending FlightAware ADS-B (CYQI)
07:18AM 46.0000 -64.4000 75° East 590 679 33,000  Level Moncton Center
07:19AM 46.0500 -64.1500 74° East 590 679 33,000  Level Moncton Center
07:20AM 46.0833 -63.9333 77° East 580 667 33,000  Level Moncton Center
07:21AM 46.1167 -63.7000 78° East 580 667 33,000  Level Moncton Center
07:22AM 46.1500 -63.4833 77° East 580 667 33,000  Level Moncton Center
07:23AM 46.1833 -63.2333 79° East 580 667 33,000  Level Moncton Center
07:24AM 46.2333 -63.0167 71° East 580 667 33,000  Level Moncton Center
07:25AM 46.2667 -62.8000 77° East 580 667 33,000  Level Moncton Center
07:26AM 46.3167 -62.5833 71° East 580 667 33,000  Level Moncton Center
07:27AM 46.3500 -62.3667 77° East 580 667 33,000  Level Moncton Center
07:28AM 46.3833 -62.1167 79° East 580 667 33,000  Level Moncton Center
07:29AM 46.4167 -61.9000 77° East 580 667 33,000  Level Moncton Center
07:30AM 46.4667 -61.6833 71° East 580 667 33,000  Level Moncton Center
07:31AM 46.4833 -61.4333 84° East 580 667 33,000  Level Moncton Center
07:32AM 46.5167 -61.2167 77° East 580 667 33,000  Level Moncton Center
07:33AM 46.5667 -60.9667 74° East 580 667 33,000  Level Moncton Center
07:34AM 46.5833 -60.7500 84° East 580 667 33,000  Level Moncton Center
07:35AM 46.6333 -60.5167 73° East 580 667 33,000 -60 Level Moncton Center
07:36AM 46.6500 -60.2833 84° East 580 667 32,900  Descending Moncton Center
07:37AM 46.7000 -60.0500 73° East 580 667 33,000  Climbing Moncton Center
07:38AM 46.7167 -59.8333 84° East 580 667 33,000  Level Moncton Center
07:39AM 46.7667 -59.6000 73° East 580 667 33,000  Level Moncton Center
07:40AM 46.7833 -59.3833 84° East 580 667 33,000  Level Moncton Center
07:41AM 46.8167 -59.1333 79° East 580 667 33,000  Level Moncton Center
07:42AM 46.8500 -58.9167 77° East 580 667 33,000  Level Moncton Center
07:43AM 46.8833 -58.6667 79° East 580 667 33,100  Climbing Moncton Center
07:44AM 46.9000 -58.4333 84° East 570 656 33,000 -60 Descending Moncton Center
07:45AM 46.9333 -58.2167 77° East 560 644 33,000  Level Moncton Center
07:46AM 46.9667 -57.9833 78° East 570 656 33,000  Level Moncton Center
07:47AM 46.9833 -57.7667 83° East 560 644 33,000  Level Moncton Center
07:48AM 47.0000 -57.5500 83° East 550 633 33,000 -60 Level Moncton Center
07:49AM 47.0500 -57.3333 71° East 550 633 32,900  Descending Moncton Center
07:50AM 47.0833 -57.1167 77° East 540 621 33,000  Climbing Moncton Center
07:51AM 47.1167 -56.8833 78° East 550 633 33,000  Level Moncton Center
07:52AM 47.1500 -56.6833 76° East 550 633 33,000  Level Moncton Center
07:53AM 47.1833 -56.4500 78° East 560 644 33,000  Level Moncton Center
07:54AM 47.2167 -56.2333 77° East 560 644 33,000  Level Moncton Center
07:55AM 47.2500 -56.0000 78° East 550 633 33,000  Level Moncton Center
07:56AM 47.2833 -55.8000 76° East 540 621 33,000  Level Moncton Center
07:57AM 47.3000 -55.5667 84° East 550 633 33,000  Level Moncton Center
07:58AM 47.3333 -55.3500 77° East 550 633 33,000  Level Moncton Center
07:59AM 47.3667 -55.1333 77° East 550 633 33,100 660 Climbing Moncton Center
08:00AM 47.4000 -54.9167 77° East 550 633 34,400 900 Climbing Moncton Center
08:01AM 47.4333 -54.6833 78° East 540 621 35,000 300 Climbing Moncton Center
08:02AM 47.4667 -54.4833 76° East 540 621 35,000  Level Moncton Center
08:03AM 47.5000 -54.2500 78° East 540 621 35,000  Level Moncton Center
08:04AM 47.5333 -54.0333 77° East 540 621 35,000  Level Moncton Center
08:05AM 47.5500 -53.8333 83° East 540 621 35,000  Level Moncton Center
08:06AM 47.5667 -53.6000 84° East 540 621 35,000  Level Moncton Center
08:07AM 47.6000 -53.3833 77° East 540 621 35,000  Level Moncton Center
08:08AM 47.6333 -53.1500 78° East 540 621 35,000  Level Moncton Center
08:09AM 47.6667 -52.9333 77° East 540 621 35,000  Level Moncton Center
08:10AM 47.6833 -52.7333 83° East 530 610 35,000  Level Moncton Center
08:11AM 47.7167 -52.5000 78° East 530 610 35,000  Level Moncton Center
08:12AM 47.7500 -52.3000 76° East 540 621 35,000  Level Moncton Center
08:13AM 47.7500 -52.0833 90° East 530 610 35,000  Level Moncton Center
08:14AM 47.7833 -51.8500 78° East 530 610 35,000  Level Moncton Center
08:15AM 47.8000 -51.6500 83° East 530 610 35,000  Level Moncton Center
08:16AM 47.8333 -51.4167 78° East 530 610 35,000  Level Moncton Center
08:17AM 47.8667 -51.2000 77° East 530 610 35,000  Level Moncton Center
08:18AM 47.8667 -51.0000 90° East 530 610 35,100  Climbing Moncton Center
08:19AM 47.8833 -50.7667 84° East 530 610 35,000 -60 Descending Moncton Center
08:20AM 47.9167 -50.5667 76° East 530 610 35,000  Level Moncton Center
08:21AM 47.9500 -50.3333 78° East 530 610 35,000  Level Gander Center
08:22AM 47.9667 -50.1333 83° East 530 610 35,000  Level Gander Center
08:23AM 47.9833 -49.9000 84° East 520 598 35,000  Level Gander Center
08:24AM 48.0500 -49.7000 63° Northeast 520 598 35,000  Level Gander Center
08:26AM 48.1435 -49.4079 70° East  Level FlightAware Approximate
08:33AM 48.4830 -47.9865 70° East  Level FlightAware Approximate
08:34AM 48.5300 -47.7818 71° East  Level FlightAware Approximate
08:35AM 48.5767 -47.5769 71° East  Level FlightAware Approximate
08:36AM 48.6231 -47.3715 71° East  Level FlightAware Approximate
08:37AM 48.6690 -47.1658 71° East  Level FlightAware Approximate
08:38AM 48.7146 -46.9597 71° East  Level FlightAware Approximate
08:39AM 48.7599 -46.7532 72° East  Level FlightAware Approximate
08:40AM 48.8047 -46.5464 72° East  Level FlightAware Approximate
08:41AM 48.8492 -46.3392 72° East  Level FlightAware Approximate
08:42AM 48.8934 -46.1316 72° East  Level FlightAware Approximate
08:43AM 48.9371 -45.9236 72° East  Level FlightAware Approximate
08:44AM 48.9805 -45.7153 72° East  Level FlightAware Approximate
08:45AM 49.0235 -45.5067 72° East  Level FlightAware Approximate
08:46AM 49.0661 -45.2976 73° East  Level FlightAware Approximate
08:47AM 49.1083 -45.0882 73° East  Level FlightAware Approximate
08:48AM 49.1502 -44.8785 73° East  Level FlightAware Approximate
08:49AM 49.1917 -44.6684 73° East  Level FlightAware Approximate
08:50AM 49.2328 -44.4580 73° East  Level FlightAware Approximate
08:51AM 49.2735 -44.2472 73° East  Level FlightAware Approximate
08:52AM 49.3139 -44.0360 74° East  Level FlightAware Approximate
08:53AM 49.3538 -43.8246 74° East  Level FlightAware Approximate
08:54AM 49.3934 -43.6127 74° East  Level FlightAware Approximate
08:55AM 49.4326 -43.4006 74° East  Level FlightAware Approximate
08:56AM 49.4714 -43.1880 74° East  Level FlightAware Approximate
08:57AM 49.5097 -42.9752 74° East  Level FlightAware Approximate
08:58AM 49.5477 -42.7620 75° East  Level FlightAware Approximate
08:59AM 49.5854 -42.5485 75° East  Level FlightAware Approximate
09:00AM 49.6226 -42.3347 75° East  Level FlightAware Approximate
09:01AM 49.6594 -42.1205 75° East  Level FlightAware Approximate
09:02AM 49.6959 -41.9061 75° East  Level FlightAware Approximate
09:03AM 49.7319 -41.6913 75° East  Level FlightAware Approximate
09:04AM 49.7675 -41.4762 76° East  Level FlightAware Approximate
09:05AM 49.8028 -41.2607 76° East  Level FlightAware Approximate
09:06AM 49.8376 -41.0450 76° East  Level FlightAware Approximate
09:07AM 49.8720 -40.8289 76° East  Level FlightAware Approximate
09:08AM 49.9061 -40.6126 76° East  Level FlightAware Approximate
09:09AM 49.9397 -40.3959 76° East  Level FlightAware Approximate
09:10AM 49.9729 -40.1789 77° East  Level FlightAware Approximate
09:11AM 50.0056 -39.9616 77° East  Level FlightAware Approximate
09:12AM 50.0370 -39.7437 77° East  Level FlightAware Approximate
09:13AM 50.0681 -39.5255 77° East  Level FlightAware Approximate
09:14AM 50.0987 -39.3071 78° East  Level FlightAware Approximate
09:15AM 50.1289 -39.0883 78° East  Level FlightAware Approximate
09:16AM 50.1587 -38.8693 78° East  Level FlightAware Approximate
09:17AM 50.1881 -38.6500 78° East  Level FlightAware Approximate
09:18AM 50.2171 -38.4305 78° East  Level FlightAware Approximate
09:19AM 50.2457 -38.2107 78° East  Level FlightAware Approximate
09:20AM 50.2739 -37.9906 79° East  Level FlightAware Approximate
09:21AM 50.3016 -37.7702 79° East  Level FlightAware Approximate
09:22AM 50.3289 -37.5496 79° East  Level FlightAware Approximate
09:23AM 50.3558 -37.3288 79° East  Level FlightAware Approximate
09:24AM 50.3823 -37.1077 79° East  Level FlightAware Approximate
09:25AM 50.4084 -36.8864 79° East  Level FlightAware Approximate
09:26AM 50.4340 -36.6648 80° East  Level FlightAware Approximate
09:27AM 50.4593 -36.4430 80° East  Level FlightAware Approximate
09:28AM 50.4841 -36.2209 80° East  Level FlightAware Approximate
09:29AM 50.5084 -35.9986 80° East  Level FlightAware Approximate
09:30AM 50.5324 -35.7761 80° East  Level FlightAware Approximate
09:31AM 50.5559 -35.5534 80° East  Level FlightAware Approximate
09:32AM 50.5790 -35.3304 81° East  Level FlightAware Approximate
09:33AM 50.6017 -35.1072 81° East  Level FlightAware Approximate
09:34AM 50.6240 -34.8839 81° East  Level FlightAware Approximate
09:35AM 50.6458 -34.6603 81° East  Level FlightAware Approximate
09:36AM 50.6672 -34.4365 81° East  Level FlightAware Approximate
09:37AM 50.6882 -34.2124 82° East  Level FlightAware Approximate
09:38AM 50.7087 -33.9882 82° East  Level FlightAware Approximate
09:39AM 50.7288 -33.7638 82° East  Level FlightAware Approximate
09:40AM 50.7485 -33.5392 82° East  Level FlightAware Approximate
09:41AM 50.7677 -33.3145 82° East  Level FlightAware Approximate
09:42AM 50.7866 -33.0895 82° East  Level FlightAware Approximate
09:43AM 50.8050 -32.8644 83° East  Level FlightAware Approximate
09:44AM 50.8229 -32.6391 83° East  Level FlightAware Approximate
09:45AM 50.8404 -32.4136 83° East  Level FlightAware Approximate
09:46AM 50.8575 -32.1879 83° East  Level FlightAware Approximate
09:47AM 50.8741 -31.9621 83° East  Level FlightAware Approximate
09:48AM 50.8904 -31.7361 83° East  Level FlightAware Approximate
09:49AM 50.9061 -31.5100 84° East  Level FlightAware Approximate
09:50AM 50.9215 -31.2837 84° East  Level FlightAware Approximate
09:51AM 50.9364 -31.0573 84° East  Level FlightAware Approximate
09:52AM 50.9508 -30.8307 84° East  Level FlightAware Approximate
09:53AM 50.9648 -30.6040 84° East  Level FlightAware Approximate
09:54AM 50.9784 -30.3772 84° East  Level FlightAware Approximate
09:55AM 50.9916 -30.1502 85° East  Level FlightAware Approximate
09:56AM 50.9954 -29.9232 95° East  Level FlightAware Approximate
09:57AM 50.9816 -29.6963 95° East  Level FlightAware Approximate
09:58AM 50.9673 -29.4695 96° East  Level FlightAware Approximate
09:59AM 50.9526 -29.2429 96° East  Level FlightAware Approximate
10:00AM 50.9374 -29.0165 96° East  Level FlightAware Approximate
10:01AM 50.9218 -28.7901 96° East  Level FlightAware Approximate
10:02AM 50.9064 -28.5639 96° East  Level FlightAware Approximate
10:03AM 50.8909 -28.3377 96° East  Level FlightAware Approximate
10:04AM 50.8750 -28.1117 96° East  Level FlightAware Approximate
10:05AM 50.8586 -27.8858 96° East  Level FlightAware Approximate
10:06AM 50.8418 -27.6601 97° East  Level FlightAware Approximate
10:07AM 50.8245 -27.4346 97° East  Level FlightAware Approximate
10:08AM 50.8069 -27.2092 97° East  Level FlightAware Approximate
10:09AM 50.7887 -26.9840 97° East  Level FlightAware Approximate
10:10AM 50.7702 -26.7590 97° East  Level FlightAware Approximate
10:11AM 50.7512 -26.5341 98° East  Level FlightAware Approximate
10:12AM 50.7318 -26.3095 98° East  Level FlightAware Approximate
10:13AM 50.7119 -26.0850 98° East  Level FlightAware Approximate
10:14AM 50.6917 -25.8607 98° East  Level FlightAware Approximate
10:15AM 50.6710 -25.6366 98° East  Level FlightAware Approximate
10:16AM 50.6498 -25.4127 98° East  Level FlightAware Approximate
10:17AM 50.6282 -25.1891 99° East  Level FlightAware Approximate
10:18AM 50.6063 -24.9656 99° East  Level FlightAware Approximate
10:19AM 50.5838 -24.7423 99° East  Level FlightAware Approximate
10:20AM 50.5610 -24.5193 99° East  Level FlightAware Approximate
10:21AM 50.5377 -24.2964 99° East  Level FlightAware Approximate
10:22AM 50.5140 -24.0738 99° East  Level FlightAware Approximate
10:23AM 50.4899 -23.8515 100° East  Level FlightAware Approximate
10:24AM 50.4653 -23.6293 100° East  Level FlightAware Approximate
10:25AM 50.4404 -23.4074 100° East  Level FlightAware Approximate
10:26AM 50.4150 -23.1857 100° East  Level FlightAware Approximate
10:27AM 50.3892 -22.9643 100° East  Level FlightAware Approximate
10:28AM 50.3629 -22.7430 100° East  Level FlightAware Approximate
10:29AM 50.3363 -22.5221 101° East  Level FlightAware Approximate
10:30AM 50.3092 -22.3014 101° East  Level FlightAware Approximate
10:31AM 50.2817 -22.0809 101° East  Level FlightAware Approximate
10:32AM 50.2538 -21.8607 101° East  Level FlightAware Approximate
10:33AM 50.2255 -21.6408 101° East  Level FlightAware Approximate
10:34AM 50.1968 -21.4211 101° East  Level FlightAware Approximate
10:35AM 50.1676 -21.2017 102° East  Level FlightAware Approximate
10:36AM 50.1381 -20.9826 102° East  Level FlightAware Approximate
10:37AM 50.1081 -20.7637 102° East  Level FlightAware Approximate
10:38AM 50.0777 -20.5451 102° East  Level FlightAware Approximate
10:39AM 50.0469 -20.3268 102° East  Level FlightAware Approximate
10:40AM 50.0157 -20.1088 102° East  Level FlightAware Approximate
10:41AM 50.0057 -19.8886 85° East  Level FlightAware Approximate
10:42AM 50.0168 -19.6660 85° East  Level FlightAware Approximate
10:43AM 50.0274 -19.4433 86° East  Level FlightAware Approximate
10:44AM 50.0376 -19.2204 86° East  Level FlightAware Approximate
10:45AM 50.0474 -18.9975 86° East  Level FlightAware Approximate
10:46AM 50.0568 -18.7745 86° East  Level FlightAware Approximate
10:47AM 50.0657 -18.5515 86° East  Level FlightAware Approximate
10:48AM 50.0742 -18.3283 87° East  Level FlightAware Approximate
10:49AM 50.0822 -18.1051 87° East  Level FlightAware Approximate
10:50AM 50.0899 -17.8818 87° East  Level FlightAware Approximate
10:51AM 50.0971 -17.6584 87° East  Level FlightAware Approximate
10:52AM 50.1039 -17.4349 87° East  Level FlightAware Approximate
10:53AM 50.1103 -17.2114 87° East  Level FlightAware Approximate
10:54AM 50.1162 -16.9879 88° East  Level FlightAware Approximate
10:55AM 50.1217 -16.7642 88° East  Level FlightAware Approximate
10:56AM 50.1268 -16.5406 88° East  Level FlightAware Approximate
10:57AM 50.1314 -16.3169 88° East  Level FlightAware Approximate
10:58AM 50.1356 -16.0931 88° East  Level FlightAware Approximate
10:59AM 50.1394 -15.8693 88° East  Level FlightAware Approximate
11:00AM 50.1427 -15.6455 89° East  Level FlightAware Approximate
11:01AM 50.1457 -15.4216 89° East  Level FlightAware Approximate
11:02AM 50.1482 -15.1978 89° East  Level FlightAware Approximate
11:03AM 50.1502 -14.9739 89° East  Level FlightAware Approximate
11:04AM 50.1519 -14.7499 89° East  Level FlightAware Approximate
11:05AM 50.1531 -14.5260 89° East  Level FlightAware Approximate
11:06AM 50.1540 -14.3021 90° East  Level FlightAware Approximate
11:07AM 50.1544 -14.0781 90° East  Level FlightAware Approximate
11:08AM 50.1543 -13.8542 90° East  Level FlightAware Approximate
11:09AM 50.1538 -13.6302 90° East  Level FlightAware Approximate
11:10AM 50.1529 -13.4063 90° East  Level FlightAware Approximate
11:11AM 50.1516 -13.1824 90° East  Level FlightAware Approximate
11:12AM 50.1498 -12.9584 91° East  Level FlightAware Approximate
11:13AM 50.1476 -12.7345 91° East  Level FlightAware Approximate
11:14AM 50.1450 -12.5107 91° East  Level FlightAware Approximate
11:15AM 50.1419 -12.2868 91° East  Level FlightAware Approximate
11:16AM 50.1384 -12.0630 91° East  Level FlightAware Approximate
11:17AM 50.1345 -11.8392 91° East  Level FlightAware Approximate
11:18AM 50.1302 -11.6155 92° East  Level FlightAware Approximate
11:19AM 50.1254 -11.3918 92° East  Level FlightAware Approximate
11:20AM 50.1202 -11.1681 92° East  Level FlightAware Approximate
11:21AM 50.1145 -10.9445 92° East  Level FlightAware Approximate
11:22AM 50.1085 -10.7210 92° East  Level FlightAware Approximate
11:23AM 50.1020 -10.4975 93° East  Level FlightAware Approximate
11:24AM 50.0951 -10.2740 93° East  Level FlightAware Approximate
11:25AM 50.0877 -10.0507 93° East  Level FlightAware Approximate
11:26AM 50.0799 -9.8274 93° East  Level FlightAware Approximate
11:27AM 50.0717 -9.6042 93° East  Level FlightAware Approximate
11:28AM 50.0631 -9.3811 93° East  Level FlightAware Approximate
11:29AM 50.0540 -9.1580 94° East  Level FlightAware Approximate
11:30AM 50.0445 -8.9350 94° East  Level FlightAware Approximate
11:31AM 50.0346 -8.7121 94° East  Level FlightAware Approximate
11:32AM 50.0242 -8.4894 94° East  Level FlightAware Approximate
11:33AM 50.0135 -8.2667 94° East  Level FlightAware Approximate
11:34AM 50.0023 -8.0441 94° East  Level FlightAware Approximate
11:35AM 50.0298 -7.8271 75° East  Level FlightAware Approximate
11:36AM 50.0666 -7.6111 75° East  Level FlightAware Approximate
11:37AM 50.1030 -7.3948 75° East  Level FlightAware Approximate
11:38AM 50.1390 -7.1781 75° East  Level FlightAware Approximate
11:39AM 50.1746 -6.9612 76° East  Level FlightAware Approximate
11:39AM 49.8687 -8.9884 76° East 474 545 35,000  Level FlightAware UK
11:39AM 49.8850 -8.8904 76° East 476 548 35,000  Level FlightAware UK
11:40AM 49.8988 -8.7904 78° East 478 550 35,000  Level FlightAware UK
11:40AM 49.9118 -8.6896 79° East 478 550 35,000  Level FlightAware UK
11:41AM 49.9251 -8.5891 78° East 476 548 35,000  Level FlightAware UK
11:41AM 49.9383 -8.4889 78° East 474 545 35,000 -120 Level FlightAware UK
11:42AM 49.9524 -8.3894 78° East 474 545 34,900 -120 Descending FlightAware UK
11:42AM 49.9636 -8.2886 80° East 476 548 34,900  Level FlightAware UK
11:43AM 49.9761 -8.1884 79° East 478 550 34,900  Level FlightAware UK
11:43AM 49.9892 -8.0873 79° East 480 552 34,900  Level FlightAware UK
11:44AM 50.0030 -7.9868 78° East 482 555 34,900  Level FlightAware UK
11:44AM 50.0166 -7.8856 78° East 484 557 34,900 60 Level FlightAware UK
11:45AM 50.0332 -7.7846 76° East 488 562 35,000 60 Climbing FlightAware UK
11:45AM 50.0499 -7.6825 76° East 490 564 35,000  Level FlightAware UK
11:46AM 50.0683 -7.5805 74° East 492 566 35,000  Level FlightAware UK
11:46AM 50.0864 -7.4779 75° East 494 568 35,000 120 Level FlightAware UK
11:46AM 50.0923 -7.4328 75° East 494 568 35,100 60 Climbing FlightAware ADS-B
11:47AM 50.1164 -7.2917 75° East 495 570 35,100 -120 Level FlightAware ADS-B
11:48AM 50.1392 -7.1684 75° East 494 568 35,000 -120 Descending FlightAware UK
11:48AM 50.1570 -7.0654 75° East 494 568 35,000  Level FlightAware UK
11:49AM 50.1631 -7.0157 75° East 495 570 35,000 -120 Level FlightAware ADS-B
11:49AM 50.1900 -6.8572 75° East 494 568 34,900  Descending FlightAware UK
11:49AM 50.1944 -6.8269 76° East 494 568 35,000 120 Climbing FlightAware ADS-B
11:50AM 50.2099 -6.7315 76° East 494 568 35,000  Level FlightAware ADS-B
11:50AM 50.2264 -6.6307 76° East 494 568 35,000  Level FlightAware ADS-B (EGCW)
11:51AM 50.2484 -6.4953 76° East 494 568 35,000  Level FlightAware ADS-B (EGCW)
11:51AM 50.2603 -6.4218 76° East 495 570 35,000  Level FlightAware ADS-B (EGCW)
11:52AM 50.2883 -6.2464 76° East 495 570 35,000  Level FlightAware ADS-B (EGCW)
11:53AM 50.3064 -6.1327 76° East 495 570 35,000  Level FlightAware ADS-B (EGHD / PLH)
11:53AM 50.3252 -6.0129 76° East 495 570 35,000  Level FlightAware ADS-B
11:54AM 50.3409 -5.9128 77° East 496 571 35,000  Level FlightAware ADS-B
11:54AM 50.3506 -5.8500 76° East 495 570 35,000  Level FlightAware ADS-B (EGDX / DGX)
11:55AM 50.3718 -5.7125 77° East 496 571 35,000  Level FlightAware ADS-B (EGCW)
11:55AM 50.3895 -5.5975 77° East 497 572 35,000  Level FlightAware ADS-B (EGCW)
11:56AM 50.4071 -5.4818 77° East 498 573 35,000 60 Level FlightAware ADS-B
11:56AM 50.4266 -5.3530 77° East 497 572 35,100  Climbing FlightAware ADS-B
11:57AM 50.4427 -5.2455 77° East 498 573 35,000 -120 Descending FlightAware ADS-B (EGHD / PLH)
11:58AM 50.4615 -5.1201 77° East 499 574 35,000  Level FlightAware ADS-B
11:58AM 50.4795 -4.9977 77° East 499 574 35,000  Level FlightAware ADS-B
11:59AM 50.4947 -4.8937 77° East 500 575 35,000  Level FlightAware ADS-B
11:59AM 50.5139 -4.7622 77° East 499 574 35,000  Level FlightAware ADS-B (EGHD / PLH)
12:00PM 50.5231 -4.6981 78° East 498 573 35,000  Level FlightAware ADS-B (EGHH / BOH)
12:00PM 50.5253 -4.6830 78° East 498 573 35,000  Level FlightAware ADS-B (EGHH / BOH)
12:00PM 50.5408 -4.5757 77° East 499 574 35,000  Level FlightAware ADS-B (EGHO)
12:00PM 50.5467 -4.5348 77° East 498 573 35,000  Level FlightAware ADS-B
12:00PM 50.5530 -4.4909 77° East 497 572 35,000  Level FlightAware ADS-B
12:01PM 50.5532 -4.4891 78° East 496 571 35,000  Level FlightAware ADS-B (EGDX / DGX)
12:01PM 50.5715 -4.3605 78° East 495 570 35,000  Level FlightAware ADS-B (EGHH / BOH)
12:02PM 50.5762 -4.3277 78° East 495 570 35,000  Level FlightAware ADS-B (EGDX / DGX)
12:02PM 50.5699 -4.3717 77° East 497 572 35,000 -120 Level FlightAware ADS-B
12:03PM 50.6263 -3.9653 77° East 494 568 34,900 -120 Descending FlightAware UK
12:03PM 50.6410 -3.8596 78° East 494 568 34,900 60 Level FlightAware UK
12:04PM 50.6542 -3.7630 78° East 492 566 35,000 60 Climbing FlightAware ADS-B (EGHH / BOH)
12:04PM 50.6639 -3.6910 78° East 492 566 35,000  Level FlightAware ADS-B
12:05PM 50.6833 -3.5472 78° East 491 565 35,000  Level FlightAware ADS-B (KCOD)
12:05PM 50.6973 -3.4412 78° East 490 564 35,000  Level FlightAware ADS-B
12:06PM 50.7111 -3.3352 78° East 490 564 35,000  Level FlightAware ADS-B (EGHH / BOH)
12:06PM 50.7249 -3.2307 78° East 490 564 35,000  Level FlightAware ADS-B (EGDM)
12:07PM 50.7331 -3.1680 78° East 489 563 35,000  Level FlightAware ADS-B (EGHH / BOH)
12:07PM 50.7381 -3.1287 79° East 490 564 35,000  Level FlightAware ADS-B
12:07PM 50.7520 -3.0208 78° East 490 564 35,000  Level FlightAware ADS-B (EGHD / PLH)
12:08PM 50.7657 -2.9159 78° East 490 564 35,000  Level FlightAware UK
12:08PM 50.7677 -2.8999 79° East 491 565 35,000  Level FlightAware ADS-B
12:08PM 50.7782 -2.8159 80° East 489 563 35,000  Level FlightAware ADS-B
12:09PM 50.7829 -2.7781 79° East 490 564 35,000 120 Level FlightAware ADS-B (EGDM)
12:09PM 50.7932 -2.6955 80° East 489 563 35,100 180 Climbing FlightAware ADS-B (EGHO)
12:09PM 50.7972 -2.6634 80° East 489 563 35,100  Level FlightAware ADS-B
12:10PM 50.8111 -2.5529 79° East 489 563 35,100  Level FlightAware ADS-B (EGHA)
12:10PM 50.8212 -2.4724 79° East 488 562 35,100  Level FlightAware ADS-B (EGHH / BOH)
12:10PM 50.8282 -2.4174 78° East 487 560 35,100 -180 Level FlightAware ADS-B
12:11PM 50.8417 -2.3074 79° East 485 558 35,000 -180 Descending FlightAware ADS-B (KCOD)
12:11PM 50.8450 -2.2803 79° East 484 557 35,000  Level FlightAware ADS-B
12:11PM 50.8457 -2.2746 81° East 483 556 35,000  Level FlightAware ADS-B (EGHH / BOH)
12:11PM 50.8547 -2.1988 80° East 482 555 35,000  Level FlightAware ADS-B (EGHH / BOH)
12:12PM 50.8560 -2.1887 79° East 483 556 35,000  Level FlightAware ADS-B (EGHA)
12:12PM 50.8610 -2.1484 80° East 481 554 35,000  Level FlightAware ADS-B (EGHI / SOU)
12:12PM 50.8648 -2.1178 79° East 482 555 35,000  Level FlightAware ADS-B (EGHA)
12:12PM 50.8706 -2.0699 79° East 481 554 35,000  Level FlightAware ADS-B
12:12PM 50.8773 -2.0143 80° East 481 554 35,000  Level FlightAware ADS-B (KMCW)
12:12PM 50.8809 -1.9826 80° East 482 555 35,000  Level FlightAware ADS-B (EGLF / FAB)
12:13PM 50.8879 -1.9228 79° East 482 555 35,000  Level FlightAware ADS-B
12:13PM 50.8915 -1.8922 80° East 482 555 35,000  Level FlightAware ADS-B
12:13PM 50.8964 -1.8507 80° East 482 555 35,000  Level FlightAware ADS-B (EGHH / BOH)
12:13PM 50.9005 -1.8153 80° East 483 556 35,000  Level FlightAware ADS-B (EGHD / PLH)
12:13PM 50.9052 -1.7756 81° East 483 556 35,000  Level FlightAware ADS-B (EGDX / DGX)
12:14PM 50.9096 -1.7370 81° East 483 556 35,000  Level FlightAware ADS-B (EGHH / BOH)
12:14PM 50.9114 -1.7219 81° East 483 556 35,000  Level FlightAware ADS-B (KMCW)
12:14PM 50.9150 -1.6912 81° East 483 556 35,000  Level FlightAware ADS-B (KMCW)
12:14PM 50.9158 -1.6841 81° East 483 556 35,000  Level FlightAware ADS-B (EGHI / SOU)
12:14PM 50.9176 -1.6689 80° East 484 557 35,000  Level FlightAware ADS-B
12:14PM 50.9194 -1.6528 81° East 483 556 35,000  Level FlightAware ADS-B
12:14PM 50.9209 -1.6406 81° East 483 556 35,000  Level FlightAware ADS-B (KMCW)
12:15PM 50.9324 -1.5403 80° East 485 558 35,000 60 Level FlightAware ADS-B (KCOD)
12:15PM 50.9444 -1.4352 80° East 485 558 35,100 120 Climbing FlightAware ADS-B (EGHA)
12:15PM 50.9482 -1.4018 79° East 485 558 35,100  Level FlightAware ADS-B
12:16PM 50.9563 -1.3301 79° East 485 558 35,100  Level FlightAware ADS-B
12:16PM 50.9605 -1.2912 80° East 484 557 35,100  Level FlightAware ADS-B
12:16PM 50.9628 -1.2657 82° East 485 558 35,100  Level FlightAware ADS-B
12:16PM 50.9665 -1.2207 83° East 485 558 35,100  Level FlightAware ADS-B (EHTW / ENS)
12:16PM 50.9690 -1.1884 84° East 483 556 35,100  Level FlightAware ADS-B (EGHH / BOH)
12:16PM 50.9722 -1.1489 83° East 483 556 35,100  Level FlightAware ADS-B (EGLF / FAB)
12:17PM 50.9751 -1.1143 82° East 482 555 35,100  Level FlightAware ADS-B
12:17PM 50.9776 -1.0842 83° East 481 554 35,100 -180 Level FlightAware ADS-B (EGHH / BOH)
12:17PM 50.9866 -0.9795 82° East 478 550 35,000 -120 Descending FlightAware ADS-B
12:18PM 50.9950 -0.8822 82° East 476 548 35,000  Level FlightAware ADS-B (EGWE)
12:18PM 51.0044 -0.7713 83° East 474 545 35,000  Level FlightAware ADS-B
12:19PM 51.0084 -0.7233 83° East 472 543 35,000  Level FlightAware ADS-B (EGDM)
12:19PM 51.0092 -0.7131 82° East 473 544 35,000  Level FlightAware ADS-B
12:19PM 51.0101 -0.7027 83° East 472 543 35,000  Level FlightAware ADS-B (EGLF / FAB)
12:19PM 51.0120 -0.6793 83° East 470 541 35,000  Level FlightAware ADS-B (EGKK / LGW)
12:19PM 51.0126 -0.6728 83° East 470 541 35,000  Level FlightAware ADS-B (EGHH / BOH)
12:19PM 51.0132 -0.6657 83° East 470 541 35,000  Level FlightAware ADS-B
12:19PM 51.0174 -0.6140 83° East 469 540 35,000  Level FlightAware ADS-B (EGKK / LGW)
12:19PM 51.0202 -0.5809 84° East 468 539 35,000  Level FlightAware ADS-B
12:20PM 51.0260 -0.5096 84° East 468 539 35,000  Level FlightAware ADS-B (EGHI / SOU)
12:20PM 51.0293 -0.4688 84° East 468 539 35,000  Level FlightAware ADS-B
12:20PM 51.0325 -0.4292 82° East 468 539 35,000  Level FlightAware ADS-B
12:20PM 51.0343 -0.4069 83° East 469 540 35,000  Level FlightAware ADS-B (EGDM)
12:20PM 51.0380 -0.3604 82° East 469 540 35,000  Level FlightAware ADS-B
12:20PM 51.0405 -0.3280 82° East 470 541 35,000  Level FlightAware ADS-B
12:21PM 51.0459 -0.2594 83° East 472 543 35,000  Level FlightAware ADS-B (EPWR / WRO)
12:21PM 51.0529 -0.1685 84° East 473 544 35,000  Level FlightAware ADS-B (EGKK / LGW)
12:21PM 51.0545 -0.1472 84° East 473 544 35,000  Level FlightAware ADS-B (EGHH / BOH)
12:21PM 51.0573 -0.1100 84° East 473 544 35,000 300 Level FlightAware ADS-B (EGKK / LGW)
12:22PM 51.0592 -0.0850 84° East 473 544 35,100 300 Climbing FlightAware ADS-B (EGHH / BOH)
12:22PM 51.0622 -0.0452 84° East 473 544 35,100  Level FlightAware ADS-B
12:22PM 51.0632 -0.0317 83° East 474 545 35,100  Level FlightAware ADS-B
12:22PM 51.0645 -0.0147 84° East 474 545 35,100  Level FlightAware ADS-B (EGHI / SOU)
12:22PM 51.0666 0.0134 83° East 475 547 35,100  Level FlightAware ADS-B (EGLF / FAB)
12:22PM 51.0709 0.0706 84° East 475 547 35,100  Level FlightAware ADS-B (EGHH / BOH)
12:22PM 51.0688 0.0425 83° East 475 547 35,100  Level FlightAware ADS-B (EGLF / FAB)
12:23PM 51.0738 0.1069 82° East 474 545 35,100  Level FlightAware ADS-B
12:23PM 51.0761 0.1369 83° East 475 547 35,100  Level FlightAware ADS-B (EHTW / ENS)
12:23PM 51.0806 0.1949 84° East 474 545 35,100  Level FlightAware ADS-B
12:23PM 51.0832 0.2295 84° East 473 544 35,100  Level FlightAware ADS-B
12:23PM 51.0862 0.2675 84° East 473 544 35,100  Level FlightAware ADS-B
12:24PM 51.0899 0.3190 83° East 473 544 35,100 -180 Level FlightAware ADS-B (EGHO)
12:24PM 51.0978 0.4274 83° East 468 539 35,000 -180 Descending FlightAware ADS-B
12:24PM 51.0983 0.4342 83° East 467 537 35,000  Level FlightAware ADS-B
12:24PM 51.1009 0.4682 84° East 467 537 35,000  Level FlightAware ADS-B (EGKK / LGW)
12:24PM 51.1030 0.4971 83° East 467 537 35,000  Level FlightAware ADS-B (EGLF / FAB)
12:25PM 51.1040 0.5096 83° East 466 536 35,000  Level FlightAware ADS-B (EGLC / LCY)
12:25PM 51.1116 0.6129 83° East 465 535 35,000  Level FlightAware ADS-B (EGHI / SOU)
12:26PM 51.1178 0.7016 84° East 464 534 35,000  Level FlightAware ADS-B (EGDM)
12:26PM 51.1261 0.8224 84° East 462 532 35,000  Level FlightAware ADS-B (EGHI / SOU)
12:27PM 51.1335 0.9290 84° East 460 529 35,000  Level FlightAware ADS-B
12:27PM 51.1384 0.9994 83° East 458 527 35,000  Level FlightAware ADS-B
12:27PM 51.1455 1.1055 84° East 459 528 35,000  Level FlightAware ADS-B (EGLF / FAB)
12:28PM 51.1531 1.2193 84° East 458 527 35,000  Level FlightAware ADS-B (EGHO)
12:29PM 51.1597 1.3220 85° East 460 529 35,000  Level FlightAware ADS-B (EGLC / LCY)
12:29PM 51.1604 1.3341 85° East 461 531 35,000  Level FlightAware ADS-B (EGHH / BOH)
12:29PM 51.1605 1.3942 94° East 461 531 35,000  Level FlightAware ADS-B
12:29PM 51.1595 1.4140 90° East 461 531 35,000  Level FlightAware ADS-B (EGSR)
12:29PM 51.1572 1.4533 94° East 462 532 35,000  Level FlightAware ADS-B (EGKK / LGW)
12:30PM 51.1529 1.5473 94° East 464 534 35,000 60 Level FlightAware ADS-B (EGLC / LCY)
12:30PM 51.1484 1.6435 95° East 466 536 35,100 60 Climbing FlightAware ADS-B
12:31PM 51.1432 1.7482 95° East 468 539 35,100  Level FlightAware ADS-B
12:31PM 51.1375 1.8601 95° East 468 539 35,100  Level FlightAware ADS-B (EGLC / LCY)
12:32PM 51.1330 1.9477 95° East 466 536 35,100  Level FlightAware ADS-B
12:32PM 51.1303 1.9994 94° East 464 534 35,100 -300 Level FlightAware ADS-B
12:32PM 51.1280 2.0438 94° East 463 533 35,000 -180 Descending FlightAware ADS-B (EGMD / LYX)
12:33PM 51.1226 2.1475 95° East 462 532 35,000  Level FlightAware ADS-B
12:33PM 51.1203 2.1914 94° East 460 529 35,000  Level FlightAware ADS-B (EGHO)
12:33PM 51.1140 2.3048 95° East 459 528 35,000  Level FlightAware ADS-B (EGLC / LCY)
12:34PM 51.1117 2.3473 94° East 458 527 35,000  Level FlightAware ADS-B (EGHO)
12:34PM 51.1096 2.3840 94° East 456 525 35,000 -180 Level FlightAware ADS-B (EGHO)
12:34PM 51.1042 2.4855 94° East 456 525 34,900  Descending FlightAware UK
12:34PM 51.1043 2.4827 95° East 455 524 35,000 120 Climbing FlightAware ADS-B (EGLC / LCY)
12:35PM 51.0984 2.5828 96° East 454 522 35,000  Level FlightAware ADS-B
12:35PM 51.0889 2.6809 107° East 452 520 35,000  Level FlightAware ADS-B (EGLF / FAB)
12:36PM 51.0676 2.7977 105° East 451 519 35,000  Level FlightAware ADS-B
12:36PM 51.0501 2.8959 105° East 452 520 35,000  Level FlightAware ADS-B
12:37PM 51.0325 2.9922 106° East 455 524 35,000 60 Level FlightAware ADS-B
12:37PM 51.0228 3.0453 106° East 457 526 35,100 60 Climbing FlightAware ADS-B (EGLF / FAB)
12:38PM 50.9917 3.2117 107° East 457 526 35,100  Level FlightAware ADS-B (EGHO)
12:39PM 50.9741 3.3059 106° East 459 528 35,100 -420 Level FlightAware ADS-B (EGLF / FAB)
12:39PM 50.9429 3.4734 107° East 457 526 34,600 -900 Descending FlightAware ADS-B
12:40PM 50.9275 3.5543 107° East 457 526 34,100 -960 Descending FlightAware ADS-B
12:40PM 50.9300 3.5414 107° East 459 528 33,600 -900 Descending FlightAware ADS-B (EGLF / FAB)
12:41PM 50.8888 3.7563 107° East 464 534 33,100 -1,080 Descending FlightAware ADS-B
12:41PM 50.8733 3.8353 108° East 463 533 32,800 -1,020 Descending FlightAware ADS-B
12:42PM 50.8644 3.8805 107° East 460 529 32,200 -720 Descending FlightAware ADS-B
12:42PM 50.8287 4.0677 107° East 460 529 32,000 -300 Descending FlightAware UK
12:43PM 50.8454 3.9796 107° East 462 532 32,000 -1,140 Level FlightAware ADS-B
12:44PM 50.7832 4.3003 107° East 464 534 30,700 -1,500 Descending FlightAware UK
12:44PM 50.7794 4.3194 107° East 464 534 30,500 -1,080 Descending FlightAware ADS-B (EGLF / FAB)
12:44PM 50.7635 4.3970 108° East 464 534 30,000 -1,440 Descending FlightAware ADS-B (KAUN)
12:45PM 50.7794 4.3194 108° East 465 535 28,600 -1,620 Descending FlightAware ADS-B (EGLF / FAB)
12:47PM 50.6622 4.9102 107° East 444 511 25,900 -1,800 Descending FlightAware ADS-B
12:47PM 50.6622 4.9102 108° East 436 502 24,800 -660 Descending FlightAware ADS-B
12:48PM 50.6487 4.9791 107° East 440 506 25,400  Climbing FlightAware ADS-B (KAUN)
12:48PM 50.6325 5.0581 107° East 433 498 24,800 -2,280 Descending FlightAware ADS-B (KAUN)
12:49PM 50.5853 5.2850 108° East 422 486 22,400 -1,920 Descending FlightAware ADS-B
12:50PM 50.5747 5.3359 108° East 416 479 21,900 -900 Descending FlightAware ADS-B (EDKL)
12:50PM 50.5542 5.4344 109° East 420 483 21,400 -1,620 Descending FlightAware ADS-B (EDKL)
12:50PM 50.5359 5.5207 82° East 418 481 20,700 -960 Descending FlightAware ADS-B
12:51PM 50.5368 5.5161 82° East 417 480 20,600 -840 Descending FlightAware ADS-B (EDKL)
12:52PM 50.5539 5.4359 91° East 416 479 19,600 -1,320 Descending FlightAware ADS-B
12:53PM 50.5563 5.9899 84° East 401 461 18,000 -1,080 Descending FlightAware ADS-B (EDKL)
12:53PM 50.5618 6.0681 84° East 399 459 17,700 -720 Descending FlightAware ADS-B (EDKL)
12:54PM 50.5738 6.2444 84° East 396 456 17,000 -840 Descending FlightAware ADS-B (EDKL)
12:55PM 50.5806 6.3332 79° East 393 452 16,500 -1,680 Descending FlightAware ADS-B (EDKL)
12:56PM 50.6009 6.4379 73° East 387 445 15,100 -2,220 Descending FlightAware ADS-B (EDKL)
12:56PM 50.6133 6.4905 59° Northeast 384 442 14,300 -2,280 Descending FlightAware ADS-B (EDKL)
12:56PM 50.6371 6.5368 48° Northeast 379 436 13,600 -2,220 Descending FlightAware ADS-B (EDKL)
12:57PM 50.6795 6.6090 47° Northeast 374 430 12,100 -1,800 Descending FlightAware ADS-B (EDKL)
12:57PM 50.7189 6.6770 48° Northeast 356 410 11,500 -1,200 Descending FlightAware ADS-B (EDKL)
12:58PM 50.7652 6.7335 21° North 323 372 10,700 -1,440 Descending FlightAware ADS-B (EDKL)
12:59PM 50.7973 6.7507 North 300 345 10,000 -1,440 Descending FlightAware ADS-B (EDKL)
12:59PM 50.8478 6.7614 North 281 323 9,300 -1,200 Descending FlightAware ADS-B (EDKL)
12:59PM 50.8721 6.7667 North 266 306 8,900 -1,620 Descending FlightAware ADS-B (EDKL)
01:00PM 50.9206 6.7762 North 258 297 7,700 -1,920 Descending FlightAware ADS-B (EDKL)
01:01PM 50.9561 6.7826 North 256 295 6,700 -2,040 Descending FlightAware ADS-B (EDKL)
01:01PM 50.9792 6.7871 North 256 295 6,000 -1,920 Descending FlightAware ADS-B (EDKL)
01:01PM 51.0022 6.7922 North 254 292 5,400 -1,320 Descending FlightAware ADS-B (EDKL)
01:02PM 51.0170 6.7959 North 254 292 5,100 -1,020 Descending FlightAware ADS-B (EDKL)
01:02PM 51.0372 6.8195 North 254 292 4,800 -1,200 Descending FlightAware ADS-B (EDKL)
01:03PM 51.0275 6.8936 116° Southeast 239 275 3,900 -1,320 Descending FlightAware ADS-B (EDKL)
01:03PM 51.0201 6.9175 121° Southeast 234 269 3,400 -1,200 Descending FlightAware ADS-B (EDKL)
01:03PM 51.0044 6.9504 137° Southeast 216 249 3,100 -1,080 Descending FlightAware ADS-B (EDKL)
01:04PM 50.9720 6.9959 138° Southeast 187 215 2,200 -1,140 Descending FlightAware ADS-B (EDKL)
01:05PM 50.9586 7.0152 137° Southeast 177 204 1,800 -960 Descending FlightAware ADS-B (EDKL)
01:05PM 50.9473 7.0316 137° Southeast 177 204 1,600 -840 Descending FlightAware ADS-B (EDKL)
01:05PM 50.9382 7.0450 137° Southeast 157 181 1,300 -840 Descending FlightAware ADS-B (EDKL)
01:06PM 50.9208 7.0704 137° Southeast 155 178 900 -720 Descending FlightAware ADS-B (EDKL)
01:08PM 50.8659 7.1427 90° East  Level Estimated
01:09PM 50.8659 7.1427 90° East  Level Estimated
01:10PM 50.8659 7.1427 90° East  Level Estimated
01:11PM 50.8659 7.1427 90° East  Level Estimated
01:12PM 50.8659 7.1427 90° East  Level Estimated
01:13PM 50.8659 7.1427 90° East  Level Estimated